sensor_id;sensor_type;location;lat;lon;timestamp;P1;durP1;ratioP1;P2;durP2;ratioP2
14776;SDS011;7480;43.124;25.686;2023-08-30T00:01:30;5.80;;;5.10;;
14776;SDS011;7480;43.124;25.686;2023-08-30T00:03:57;7.97;;;5.05;;
14776;SDS011;7480;43.124;25.686;2023-08-30T00:06:23;6.30;;;4.72;;
14776;SDS011;7480;43.124;25.686;2023-08-30T00:08:50;5.38;;;4.72;;
14776;SDS011;7480;43.124;25.686;2023-08-30T00:11:17;8.40;;;5.13;;
14776;SDS011;7480;43.124;25.686;2023-08-30T00:13:43;7.25;;;5.00;;
14776;SDS011;7480;43.124;25.686;2023-08-30T00:16:10;8.73;;;5.07;;
14776;SDS011;7480;43.124;25.686;2023-08-30T00:18:39;8.50;;;5.50;;
14776;SDS011;7480;43.124;25.686;2023-08-30T00:21:06;6.40;;;5.00;;
14776;SDS011;7480;43.124;25.686;2023-08-30T00:23:33;5.82;;;4.95;;
14776;SDS011;7480;43.124;25.686;2023-08-30T00:25:59;7.07;;;5.20;;
14776;SDS011;7480;43.124;25.686;2023-08-30T00:28:27;6.50;;;4.32;;
14776;SDS011;7480;43.124;25.686;2023-08-30T00:30:54;7.47;;;5.18;;
14776;SDS011;7480;43.124;25.686;2023-08-30T00:33:22;5.82;;;5.28;;
14776;SDS011;7480;43.124;25.686;2023-08-30T00:35:55;6.40;;;5.25;;
14776;SDS011;7480;43.124;25.686;2023-08-30T00:38:22;7.88;;;5.32;;
14776;SDS011;7480;43.124;25.686;2023-08-30T00:40:49;6.28;;;5.65;;
14776;SDS011;7480;43.124;25.686;2023-08-30T00:43:16;7.87;;;5.47;;
14776;SDS011;7480;43.124;25.686;2023-08-30T00:45:42;6.85;;;5.25;;
14776;SDS011;7480;43.124;25.686;2023-08-30T00:48:10;6.68;;;5.03;;
14776;SDS011;7480;43.124;25.686;2023-08-30T00:50:37;8.65;;;5.53;;
14776;SDS011;7480;43.124;25.686;2023-08-30T00:53:05;7.68;;;5.10;;
14776;SDS011;7480;43.124;25.686;2023-08-30T00:55:36;7.45;;;4.82;;
14776;SDS011;7480;43.124;25.686;2023-08-30T00:58:03;6.95;;;5.68;;
14776;SDS011;7480;43.124;25.686;2023-08-30T01:00:31;6.78;;;5.35;;
14776;SDS011;7480;43.124;25.686;2023-08-30T01:02:58;8.67;;;4.93;;
14776;SDS011;7480;43.124;25.686;2023-08-30T01:05:25;6.43;;;5.30;;
14776;SDS011;7480;43.124;25.686;2023-08-30T01:07:52;7.33;;;6.00;;
14776;SDS011;7480;43.124;25.686;2023-08-30T01:10:18;6.38;;;5.38;;
14776;SDS011;7480;43.124;25.686;2023-08-30T01:12:49;6.57;;;4.72;;
14776;SDS011;7480;43.124;25.686;2023-08-30T01:15:20;7.80;;;6.03;;
14776;SDS011;7480;43.124;25.686;2023-08-30T01:17:48;5.60;;;4.50;;
14776;SDS011;7480;43.124;25.686;2023-08-30T01:20:16;8.43;;;5.20;;
14776;SDS011;7480;43.124;25.686;2023-08-30T01:28:09;8.93;;;5.57;;
14776;SDS011;7480;43.124;25.686;2023-08-30T01:30:37;8.97;;;5.30;;
14776;SDS011;7480;43.124;25.686;2023-08-30T01:33:06;6.80;;;5.13;;
14776;SDS011;7480;43.124;25.686;2023-08-30T01:35:34;5.53;;;4.80;;
14776;SDS011;7480;43.124;25.686;2023-08-30T01:38:03;6.25;;;5.20;;
14776;SDS011;7480;43.124;25.686;2023-08-30T01:40:33;6.13;;;4.40;;
14776;SDS011;7480;43.124;25.686;2023-08-30T01:43:02;6.27;;;4.83;;
14776;SDS011;7480;43.124;25.686;2023-08-30T01:45:30;5.37;;;4.87;;
14776;SDS011;7480;43.124;25.686;2023-08-30T01:48:02;6.57;;;5.50;;
14776;SDS011;7480;43.124;25.686;2023-08-30T01:50:30;9.27;;;5.10;;
14776;SDS011;7480;43.124;25.686;2023-08-30T01:52:57;6.23;;;4.43;;
14776;SDS011;7480;43.124;25.686;2023-08-30T01:55:23;7.80;;;5.30;;
14776;SDS011;7480;43.124;25.686;2023-08-30T01:57:51;6.80;;;5.17;;
14776;SDS011;7480;43.124;25.686;2023-08-30T02:00:18;8.00;;;5.17;;
14776;SDS011;7480;43.124;25.686;2023-08-30T02:02:45;7.63;;;5.47;;
14776;SDS011;7480;43.124;25.686;2023-08-30T02:05:12;6.65;;;5.25;;
14776;SDS011;7480;43.124;25.686;2023-08-30T02:07:51;6.82;;;4.95;;
14776;SDS011;7480;43.124;25.686;2023-08-30T02:10:33;6.70;;;5.10;;
14776;SDS011;7480;43.124;25.686;2023-08-30T02:13:01;7.00;;;5.13;;
14776;SDS011;7480;43.124;25.686;2023-08-30T02:15:30;7.10;;;5.07;;
14776;SDS011;7480;43.124;25.686;2023-08-30T02:17:58;6.97;;;4.87;;
14776;SDS011;7480;43.124;25.686;2023-08-30T02:20:25;5.63;;;4.93;;
14776;SDS011;7480;43.124;25.686;2023-08-30T02:22:52;9.30;;;5.10;;
14776;SDS011;7480;43.124;25.686;2023-08-30T02:25:24;7.60;;;5.27;;
14776;SDS011;7480;43.124;25.686;2023-08-30T02:27:51;8.03;;;5.27;;
14776;SDS011;7480;43.124;25.686;2023-08-30T02:30:18;8.10;;;4.83;;
14776;SDS011;7480;43.124;25.686;2023-08-30T02:32:45;10.40;;;5.67;;
14776;SDS011;7480;43.124;25.686;2023-08-30T02:35:12;6.23;;;5.10;;
14776;SDS011;7480;43.124;25.686;2023-08-30T02:37:38;8.13;;;5.50;;
14776;SDS011;7480;43.124;25.686;2023-08-30T02:40:06;9.50;;;5.03;;
14776;SDS011;7480;43.124;25.686;2023-08-30T02:42:33;6.93;;;5.20;;
14776;SDS011;7480;43.124;25.686;2023-08-30T02:45:00;7.30;;;5.63;;
14776;SDS011;7480;43.124;25.686;2023-08-30T02:47:27;10.27;;;5.37;;
14776;SDS011;7480;43.124;25.686;2023-08-30T02:49:53;7.47;;;5.30;;
14776;SDS011;7480;43.124;25.686;2023-08-30T02:52:20;5.80;;;5.20;;
14776;SDS011;7480;43.124;25.686;2023-08-30T02:54:47;7.60;;;5.50;;
14776;SDS011;7480;43.124;25.686;2023-08-30T02:57:13;7.07;;;5.10;;
14776;SDS011;7480;43.124;25.686;2023-08-30T02:59:40;8.33;;;5.60;;
14776;SDS011;7480;43.124;25.686;2023-08-30T03:02:07;8.43;;;5.97;;
14776;SDS011;7480;43.124;25.686;2023-08-30T03:04:34;6.17;;;5.30;;
14776;SDS011;7480;43.124;25.686;2023-08-30T03:07:01;9.33;;;5.80;;
14776;SDS011;7480;43.124;25.686;2023-08-30T03:09:28;6.87;;;5.93;;
14776;SDS011;7480;43.124;25.686;2023-08-30T03:11:54;8.60;;;5.73;;
14776;SDS011;7480;43.124;25.686;2023-08-30T03:14:21;11.87;;;6.10;;
14776;SDS011;7480;43.124;25.686;2023-08-30T03:16:48;8.07;;;5.57;;
14776;SDS011;7480;43.124;25.686;2023-08-30T03:19:14;10.17;;;6.40;;
14776;SDS011;7480;43.124;25.686;2023-08-30T03:21:43;7.70;;;5.70;;
14776;SDS011;7480;43.124;25.686;2023-08-30T03:24:10;6.67;;;5.67;;
14776;SDS011;7480;43.124;25.686;2023-08-30T03:26:36;9.10;;;6.27;;
14776;SDS011;7480;43.124;25.686;2023-08-30T03:29:03;8.57;;;6.23;;
14776;SDS011;7480;43.124;25.686;2023-08-30T03:31:30;8.43;;;6.07;;
14776;SDS011;7480;43.124;25.686;2023-08-30T03:33:57;10.60;;;6.17;;
14776;SDS011;7480;43.124;25.686;2023-08-30T03:36:23;9.43;;;6.10;;
14776;SDS011;7480;43.124;25.686;2023-08-30T03:38:50;6.97;;;6.10;;
14776;SDS011;7480;43.124;25.686;2023-08-30T03:41:17;9.63;;;6.53;;
14776;SDS011;7480;43.124;25.686;2023-08-30T03:43:44;8.10;;;5.90;;
14776;SDS011;7480;43.124;25.686;2023-08-30T03:46:10;10.33;;;6.27;;
14776;SDS011;7480;43.124;25.686;2023-08-30T03:48:38;8.87;;;6.43;;
14776;SDS011;7480;43.124;25.686;2023-08-30T03:51:05;7.03;;;5.47;;
14776;SDS011;7480;43.124;25.686;2023-08-30T03:53:32;8.47;;;6.67;;
14776;SDS011;7480;43.124;25.686;2023-08-30T03:55:58;6.90;;;5.40;;
14776;SDS011;7480;43.124;25.686;2023-08-30T03:58:25;6.30;;;5.67;;
14776;SDS011;7480;43.124;25.686;2023-08-30T04:00:52;6.97;;;6.13;;
14776;SDS011;7480;43.124;25.686;2023-08-30T04:03:19;8.03;;;6.07;;
14776;SDS011;7480;43.124;25.686;2023-08-30T04:05:46;10.60;;;6.73;;
14776;SDS011;7480;43.124;25.686;2023-08-30T04:08:12;10.40;;;6.20;;
14776;SDS011;7480;43.124;25.686;2023-08-30T04:10:40;8.40;;;5.80;;
14776;SDS011;7480;43.124;25.686;2023-08-30T04:13:07;9.80;;;6.43;;
14776;SDS011;7480;43.124;25.686;2023-08-30T04:15:36;8.07;;;5.77;;
14776;SDS011;7480;43.124;25.686;2023-08-30T04:18:03;8.93;;;6.27;;
14776;SDS011;7480;43.124;25.686;2023-08-30T04:20:31;9.25;;;6.50;;
14776;SDS011;7480;43.124;25.686;2023-08-30T04:22:59;9.53;;;6.03;;
14776;SDS011;7480;43.124;25.686;2023-08-30T04:25:28;7.03;;;6.10;;
14776;SDS011;7480;43.124;25.686;2023-08-30T04:27:56;8.23;;;6.10;;
14776;SDS011;7480;43.124;25.686;2023-08-30T04:30:22;10.07;;;5.33;;
14776;SDS011;7480;43.124;25.686;2023-08-30T04:32:49;7.50;;;5.93;;
14776;SDS011;7480;43.124;25.686;2023-08-30T04:35:16;8.20;;;6.05;;
14776;SDS011;7480;43.124;25.686;2023-08-30T04:37:43;10.43;;;5.93;;
14776;SDS011;7480;43.124;25.686;2023-08-30T04:40:10;7.53;;;6.03;;
14776;SDS011;7480;43.124;25.686;2023-08-30T04:42:37;10.00;;;6.38;;
14776;SDS011;7480;43.124;25.686;2023-08-30T04:45:06;6.95;;;6.20;;
14776;SDS011;7480;43.124;25.686;2023-08-30T04:47:33;7.47;;;6.15;;
14776;SDS011;7480;43.124;25.686;2023-08-30T04:50:00;5.97;;;5.35;;
14776;SDS011;7480;43.124;25.686;2023-08-30T04:52:27;7.22;;;6.00;;
14776;SDS011;7480;43.124;25.686;2023-08-30T04:54:54;7.75;;;5.40;;
14776;SDS011;7480;43.124;25.686;2023-08-30T04:57:20;7.47;;;5.43;;
14776;SDS011;7480;43.124;25.686;2023-08-30T04:59:47;8.90;;;5.70;;
14776;SDS011;7480;43.124;25.686;2023-08-30T05:02:14;7.40;;;5.68;;
14776;SDS011;7480;43.124;25.686;2023-08-30T05:04:40;7.85;;;5.40;;
14776;SDS011;7480;43.124;25.686;2023-08-30T05:07:07;5.90;;;5.00;;
14776;SDS011;7480;43.124;25.686;2023-08-30T05:09:34;6.75;;;5.10;;
14776;SDS011;7480;43.124;25.686;2023-08-30T05:12:01;7.15;;;5.70;;
14776;SDS011;7480;43.124;25.686;2023-08-30T05:14:28;7.55;;;5.50;;
14776;SDS011;7480;43.124;25.686;2023-08-30T05:16:55;8.60;;;5.57;;
14776;SDS011;7480;43.124;25.686;2023-08-30T05:19:22;9.23;;;5.10;;
14776;SDS011;7480;43.124;25.686;2023-08-30T05:21:49;6.25;;;5.45;;
14776;SDS011;7480;43.124;25.686;2023-08-30T05:24:21;8.77;;;5.90;;
14776;SDS011;7480;43.124;25.686;2023-08-30T05:26:48;8.43;;;5.22;;
14776;SDS011;7480;43.124;25.686;2023-08-30T05:29:15;7.25;;;5.45;;
14776;SDS011;7480;43.124;25.686;2023-08-30T05:31:42;8.15;;;5.82;;
14776;SDS011;7480;43.124;25.686;2023-08-30T05:34:09;8.13;;;5.63;;
14776;SDS011;7480;43.124;25.686;2023-08-30T05:36:36;8.98;;;6.22;;
14776;SDS011;7480;43.124;25.686;2023-08-30T05:39:03;9.25;;;5.97;;
14776;SDS011;7480;43.124;25.686;2023-08-30T05:41:30;7.75;;;5.53;;
14776;SDS011;7480;43.124;25.686;2023-08-30T05:43:56;6.07;;;5.10;;
14776;SDS011;7480;43.124;25.686;2023-08-30T05:46:23;6.18;;;5.47;;
14776;SDS011;7480;43.124;25.686;2023-08-30T05:48:50;7.75;;;6.15;;
14776;SDS011;7480;43.124;25.686;2023-08-30T05:51:17;7.97;;;5.07;;
14776;SDS011;7480;43.124;25.686;2023-08-30T05:53:46;8.52;;;5.95;;
14776;SDS011;7480;43.124;25.686;2023-08-30T05:56:13;7.90;;;5.15;;
14776;SDS011;7480;43.124;25.686;2023-08-30T05:58:39;6.72;;;5.22;;
14776;SDS011;7480;43.124;25.686;2023-08-30T06:01:06;7.90;;;5.55;;
14776;SDS011;7480;43.124;25.686;2023-08-30T06:03:34;6.30;;;5.40;;
14776;SDS011;7480;43.124;25.686;2023-08-30T06:06:01;10.05;;;5.53;;
14776;SDS011;7480;43.124;25.686;2023-08-30T06:08:28;8.35;;;5.80;;
14776;SDS011;7480;43.124;25.686;2023-08-30T06:10:55;8.38;;;5.43;;
14776;SDS011;7480;43.124;25.686;2023-08-30T06:13:22;8.52;;;5.32;;
14776;SDS011;7480;43.124;25.686;2023-08-30T06:15:52;6.05;;;5.45;;
14776;SDS011;7480;43.124;25.686;2023-08-30T06:18:23;6.65;;;4.70;;
14776;SDS011;7480;43.124;25.686;2023-08-30T06:20:50;6.30;;;4.80;;
14776;SDS011;7480;43.124;25.686;2023-08-30T06:23:18;5.85;;;5.20;;
14776;SDS011;7480;43.124;25.686;2023-08-30T06:25:45;6.07;;;5.43;;
14776;SDS011;7480;43.124;25.686;2023-08-30T06:28:19;7.13;;;5.35;;
14776;SDS011;7480;43.124;25.686;2023-08-30T06:30:46;6.35;;;4.70;;
14776;SDS011;7480;43.124;25.686;2023-08-30T06:33:12;6.32;;;4.85;;
14776;SDS011;7480;43.124;25.686;2023-08-30T06:35:39;7.78;;;5.15;;
14776;SDS011;7480;43.124;25.686;2023-08-30T06:38:06;6.25;;;4.97;;
14776;SDS011;7480;43.124;25.686;2023-08-30T06:40:33;6.78;;;5.15;;
14776;SDS011;7480;43.124;25.686;2023-08-30T06:42:59;7.50;;;5.43;;
14776;SDS011;7480;43.124;25.686;2023-08-30T06:45:26;6.60;;;5.38;;
14776;SDS011;7480;43.124;25.686;2023-08-30T06:47:53;6.70;;;4.78;;
14776;SDS011;7480;43.124;25.686;2023-08-30T06:50:20;6.50;;;4.93;;
14776;SDS011;7480;43.124;25.686;2023-08-30T06:52:46;9.90;;;5.28;;
14776;SDS011;7480;43.124;25.686;2023-08-30T06:55:13;5.22;;;4.60;;
14776;SDS011;7480;43.124;25.686;2023-08-30T06:57:40;6.72;;;5.13;;
14776;SDS011;7480;43.124;25.686;2023-08-30T07:00:07;6.68;;;5.18;;
14776;SDS011;7480;43.124;25.686;2023-08-30T07:02:37;8.65;;;6.13;;
14776;SDS011;7480;43.124;25.686;2023-08-30T07:05:04;7.30;;;5.40;;
14776;SDS011;7480;43.124;25.686;2023-08-30T07:07:32;5.68;;;4.78;;
14776;SDS011;7480;43.124;25.686;2023-08-30T07:09:58;5.68;;;4.95;;
14776;SDS011;7480;43.124;25.686;2023-08-30T07:12:25;6.05;;;5.25;;
14776;SDS011;7480;43.124;25.686;2023-08-30T07:14:52;7.22;;;4.80;;
14776;SDS011;7480;43.124;25.686;2023-08-30T07:17:19;5.88;;;4.70;;
14776;SDS011;7480;43.124;25.686;2023-08-30T07:19:46;5.65;;;5.07;;
14776;SDS011;7480;43.124;25.686;2023-08-30T07:22:12;6.15;;;5.25;;
14776;SDS011;7480;43.124;25.686;2023-08-30T07:24:39;6.20;;;5.15;;
14776;SDS011;7480;43.124;25.686;2023-08-30T07:27:06;6.82;;;5.07;;
14776;SDS011;7480;43.124;25.686;2023-08-30T07:29:33;6.88;;;5.10;;
14776;SDS011;7480;43.124;25.686;2023-08-30T07:32:00;8.40;;;5.68;;
14776;SDS011;7480;43.124;25.686;2023-08-30T07:34:27;7.90;;;5.50;;
14776;SDS011;7480;43.124;25.686;2023-08-30T07:36:54;6.25;;;5.00;;
14776;SDS011;7480;43.124;25.686;2023-08-30T07:39:22;6.60;;;5.15;;
14776;SDS011;7480;43.124;25.686;2023-08-30T07:41:49;8.57;;;5.40;;
14776;SDS011;7480;43.124;25.686;2023-08-30T07:44:15;8.50;;;5.53;;
14776;SDS011;7480;43.124;25.686;2023-08-30T07:46:42;7.78;;;5.72;;
14776;SDS011;7480;43.124;25.686;2023-08-30T07:49:09;7.47;;;5.82;;
14776;SDS011;7480;43.124;25.686;2023-08-30T07:51:36;6.05;;;5.40;;
14776;SDS011;7480;43.124;25.686;2023-08-30T07:54:02;7.43;;;5.60;;
14776;SDS011;7480;43.124;25.686;2023-08-30T07:56:31;8.10;;;5.25;;
14776;SDS011;7480;43.124;25.686;2023-08-30T07:58:57;6.25;;;5.20;;
14776;SDS011;7480;43.124;25.686;2023-08-30T08:01:24;6.82;;;5.45;;
14776;SDS011;7480;43.124;25.686;2023-08-30T08:03:51;8.68;;;5.60;;
14776;SDS011;7480;43.124;25.686;2023-08-30T08:06:33;7.18;;;6.47;;
14776;SDS011;7480;43.124;25.686;2023-08-30T08:09:00;8.38;;;5.65;;
14776;SDS011;7480;43.124;25.686;2023-08-30T08:11:27;7.20;;;5.50;;
14776;SDS011;7480;43.124;25.686;2023-08-30T08:13:54;7.90;;;5.70;;
14776;SDS011;7480;43.124;25.686;2023-08-30T08:16:21;6.38;;;5.35;;
14776;SDS011;7480;43.124;25.686;2023-08-30T08:18:48;8.63;;;6.53;;
14776;SDS011;7480;43.124;25.686;2023-08-30T08:21:15;7.20;;;5.70;;
14776;SDS011;7480;43.124;25.686;2023-08-30T08:23:42;7.32;;;5.93;;
14776;SDS011;7480;43.124;25.686;2023-08-30T08:26:08;9.35;;;6.70;;
14776;SDS011;7480;43.124;25.686;2023-08-30T08:28:35;7.60;;;5.65;;
14776;SDS011;7480;43.124;25.686;2023-08-30T08:31:02;8.50;;;5.70;;
14776;SDS011;7480;43.124;25.686;2023-08-30T08:33:29;6.65;;;5.82;;
14776;SDS011;7480;43.124;25.686;2023-08-30T08:35:56;8.10;;;6.68;;
14776;SDS011;7480;43.124;25.686;2023-08-30T08:38:22;7.82;;;5.93;;
14776;SDS011;7480;43.124;25.686;2023-08-30T08:40:51;6.03;;;5.47;;
14776;SDS011;7480;43.124;25.686;2023-08-30T08:43:19;6.03;;;5.38;;
14776;SDS011;7480;43.124;25.686;2023-08-30T08:45:46;8.15;;;6.18;;
14776;SDS011;7480;43.124;25.686;2023-08-30T08:48:14;12.23;;;6.18;;
14776;SDS011;7480;43.124;25.686;2023-08-30T08:50:41;7.28;;;6.05;;
14776;SDS011;7480;43.124;25.686;2023-08-30T08:53:08;6.32;;;5.57;;
14776;SDS011;7480;43.124;25.686;2023-08-30T08:55:35;10.18;;;5.38;;
14776;SDS011;7480;43.124;25.686;2023-08-30T08:58:02;7.78;;;5.82;;
14776;SDS011;7480;43.124;25.686;2023-08-30T09:00:30;8.68;;;6.35;;
14776;SDS011;7480;43.124;25.686;2023-08-30T09:02:57;9.45;;;6.07;;
14776;SDS011;7480;43.124;25.686;2023-08-30T09:05:24;8.52;;;5.60;;
14776;SDS011;7480;43.124;25.686;2023-08-30T09:07:51;7.70;;;6.00;;
14776;SDS011;7480;43.124;25.686;2023-08-30T09:10:20;7.63;;;5.88;;
14776;SDS011;7480;43.124;25.686;2023-08-30T09:12:48;6.80;;;5.60;;
14776;SDS011;7480;43.124;25.686;2023-08-30T09:15:15;7.43;;;5.88;;
14776;SDS011;7480;43.124;25.686;2023-08-30T09:17:44;8.15;;;5.80;;
14776;SDS011;7480;43.124;25.686;2023-08-30T09:20:13;9.02;;;5.85;;
14776;SDS011;7480;43.124;25.686;2023-08-30T09:22:41;8.38;;;5.50;;
14776;SDS011;7480;43.124;25.686;2023-08-30T09:25:09;6.55;;;5.32;;
14776;SDS011;7480;43.124;25.686;2023-08-30T09:27:36;10.10;;;5.40;;
14776;SDS011;7480;43.124;25.686;2023-08-30T09:30:05;6.65;;;5.90;;
14776;SDS011;7480;43.124;25.686;2023-08-30T09:32:41;8.10;;;5.72;;
14776;SDS011;7480;43.124;25.686;2023-08-30T09:35:11;6.10;;;5.50;;
14776;SDS011;7480;43.124;25.686;2023-08-30T09:37:38;7.78;;;5.53;;
14776;SDS011;7480;43.124;25.686;2023-08-30T09:40:05;7.75;;;6.95;;
14776;SDS011;7480;43.124;25.686;2023-08-30T09:42:32;6.75;;;5.75;;
14776;SDS011;7480;43.124;25.686;2023-08-30T09:44:59;9.15;;;6.57;;
14776;SDS011;7480;43.124;25.686;2023-08-30T09:47:26;6.35;;;5.75;;
14776;SDS011;7480;43.124;25.686;2023-08-30T09:49:54;7.85;;;5.63;;
14776;SDS011;7480;43.124;25.686;2023-08-30T09:52:23;6.63;;;4.90;;
14776;SDS011;7480;43.124;25.686;2023-08-30T09:54:51;6.93;;;5.50;;
14776;SDS011;7480;43.124;25.686;2023-08-30T09:57:18;8.45;;;5.60;;
14776;SDS011;7480;43.124;25.686;2023-08-30T09:59:45;5.72;;;5.10;;
14776;SDS011;7480;43.124;25.686;2023-08-30T10:02:12;5.93;;;5.32;;
14776;SDS011;7480;43.124;25.686;2023-08-30T10:04:39;8.85;;;5.82;;
14776;SDS011;7480;43.124;25.686;2023-08-30T10:07:07;9.00;;;5.65;;
14776;SDS011;7480;43.124;25.686;2023-08-30T10:09:35;6.28;;;5.60;;
14776;SDS011;7480;43.124;25.686;2023-08-30T10:12:17;7.13;;;5.32;;
14776;SDS011;7480;43.124;25.686;2023-08-30T10:14:46;5.82;;;5.22;;
14776;SDS011;7480;43.124;25.686;2023-08-30T10:17:13;6.35;;;5.50;;
14776;SDS011;7480;43.124;25.686;2023-08-30T10:19:40;6.60;;;5.40;;
14776;SDS011;7480;43.124;25.686;2023-08-30T10:22:07;7.20;;;5.30;;
14776;SDS011;7480;43.124;25.686;2023-08-30T10:24:48;6.65;;;5.47;;
14776;SDS011;7480;43.124;25.686;2023-08-30T10:27:39;6.85;;;5.68;;
14776;SDS011;7480;43.124;25.686;2023-08-30T10:30:08;8.13;;;5.72;;
14776;SDS011;7480;43.124;25.686;2023-08-30T10:32:39;8.23;;;5.57;;
14776;SDS011;7480;43.124;25.686;2023-08-30T10:35:07;7.22;;;5.53;;
14776;SDS011;7480;43.124;25.686;2023-08-30T10:37:37;6.80;;;5.40;;
14776;SDS011;7480;43.124;25.686;2023-08-30T10:40:03;8.18;;;5.38;;
14776;SDS011;7480;43.124;25.686;2023-08-30T10:42:32;7.53;;;5.43;;
14776;SDS011;7480;43.124;25.686;2023-08-30T10:45:04;6.25;;;5.65;;
14776;SDS011;7480;43.124;25.686;2023-08-30T10:47:35;6.55;;;5.20;;
14776;SDS011;7480;43.124;25.686;2023-08-30T10:50:05;10.45;;;5.93;;
14776;SDS011;7480;43.124;25.686;2023-08-30T10:52:33;5.78;;;4.75;;
14776;SDS011;7480;43.124;25.686;2023-08-30T10:57:40;7.20;;;5.53;;
14776;SDS011;7480;43.124;25.686;2023-08-30T11:00:09;6.53;;;5.07;;
14776;SDS011;7480;43.124;25.686;2023-08-30T11:02:43;7.30;;;5.32;;
14776;SDS011;7480;43.124;25.686;2023-08-30T11:05:21;6.20;;;5.53;;
14776;SDS011;7480;43.124;25.686;2023-08-30T11:07:50;7.82;;;5.38;;
14776;SDS011;7480;43.124;25.686;2023-08-30T11:10:18;8.05;;;5.85;;
14776;SDS011;7480;43.124;25.686;2023-08-30T11:12:45;6.47;;;5.28;;
14776;SDS011;7480;43.124;25.686;2023-08-30T11:15:13;5.80;;;5.20;;
14776;SDS011;7480;43.124;25.686;2023-08-30T11:17:41;12.52;;;5.68;;
14776;SDS011;7480;43.124;25.686;2023-08-30T11:20:12;6.50;;;5.35;;
14776;SDS011;7480;43.124;25.686;2023-08-30T11:22:44;8.55;;;5.20;;
14776;SDS011;7480;43.124;25.686;2023-08-30T11:25:12;6.85;;;5.22;;
14776;SDS011;7480;43.124;25.686;2023-08-30T11:27:41;6.45;;;5.80;;
14776;SDS011;7480;43.124;25.686;2023-08-30T11:30:08;5.60;;;5.03;;
14776;SDS011;7480;43.124;25.686;2023-08-30T11:32:40;7.95;;;5.43;;
14776;SDS011;7480;43.124;25.686;2023-08-30T11:35:11;5.72;;;5.13;;
14776;SDS011;7480;43.124;25.686;2023-08-30T11:37:38;7.93;;;5.78;;
14776;SDS011;7480;43.124;25.686;2023-08-30T11:40:06;5.88;;;5.25;;
14776;SDS011;7480;43.124;25.686;2023-08-30T11:42:34;8.52;;;5.63;;
14776;SDS011;7480;43.124;25.686;2023-08-30T11:45:01;7.43;;;5.35;;
14776;SDS011;7480;43.124;25.686;2023-08-30T11:47:28;7.72;;;5.53;;
14776;SDS011;7480;43.124;25.686;2023-08-30T11:49:56;7.53;;;5.78;;
14776;SDS011;7480;43.124;25.686;2023-08-30T11:52:23;6.18;;;5.18;;
14776;SDS011;7480;43.124;25.686;2023-08-30T11:54:50;7.60;;;5.60;;
14776;SDS011;7480;43.124;25.686;2023-08-30T11:57:17;6.45;;;5.28;;
14776;SDS011;7480;43.124;25.686;2023-08-30T11:59:44;5.80;;;5.22;;
14776;SDS011;7480;43.124;25.686;2023-08-30T12:02:12;9.05;;;5.28;;
14776;SDS011;7480;43.124;25.686;2023-08-30T12:04:43;6.97;;;4.78;;
14776;SDS011;7480;43.124;25.686;2023-08-30T12:07:22;6.75;;;5.65;;
14776;SDS011;7480;43.124;25.686;2023-08-30T12:09:50;6.93;;;5.97;;
14776;SDS011;7480;43.124;25.686;2023-08-30T12:12:17;6.22;;;5.63;;
14776;SDS011;7480;43.124;25.686;2023-08-30T12:14:43;9.20;;;6.00;;
14776;SDS011;7480;43.124;25.686;2023-08-30T12:17:10;6.15;;;5.50;;
14776;SDS011;7480;43.124;25.686;2023-08-30T12:19:39;6.68;;;5.30;;
14776;SDS011;7480;43.124;25.686;2023-08-30T12:22:09;6.25;;;5.68;;
14776;SDS011;7480;43.124;25.686;2023-08-30T12:24:42;7.65;;;5.70;;
14776;SDS011;7480;43.124;25.686;2023-08-30T12:27:09;6.47;;;5.32;;
14776;SDS011;7480;43.124;25.686;2023-08-30T12:29:36;6.25;;;5.65;;
14776;SDS011;7480;43.124;25.686;2023-08-30T12:32:03;5.70;;;5.10;;
14776;SDS011;7480;43.124;25.686;2023-08-30T12:34:30;5.68;;;5.03;;
14776;SDS011;7480;43.124;25.686;2023-08-30T12:36:57;7.47;;;5.32;;
14776;SDS011;7480;43.124;25.686;2023-08-30T12:39:28;7.03;;;5.13;;
14776;SDS011;7480;43.124;25.686;2023-08-30T12:41:55;5.82;;;5.32;;
14776;SDS011;7480;43.124;25.686;2023-08-30T12:44:22;8.82;;;5.20;;
14776;SDS011;7480;43.124;25.686;2023-08-30T12:46:49;6.53;;;5.63;;
14776;SDS011;7480;43.124;25.686;2023-08-30T12:49:15;6.60;;;4.65;;
14776;SDS011;7480;43.124;25.686;2023-08-30T12:51:42;5.47;;;4.97;;
14776;SDS011;7480;43.124;25.686;2023-08-30T12:54:09;6.18;;;5.03;;
14776;SDS011;7480;43.124;25.686;2023-08-30T12:56:36;9.45;;;5.25;;
14776;SDS011;7480;43.124;25.686;2023-08-30T12:59:02;6.88;;;5.15;;
14776;SDS011;7480;43.124;25.686;2023-08-30T13:01:29;6.20;;;5.60;;
14776;SDS011;7480;43.124;25.686;2023-08-30T13:03:56;5.93;;;4.95;;
14776;SDS011;7480;43.124;25.686;2023-08-30T13:06:23;6.72;;;5.60;;
14776;SDS011;7480;43.124;25.686;2023-08-30T13:08:50;5.93;;;5.43;;
14776;SDS011;7480;43.124;25.686;2023-08-30T13:11:16;5.80;;;5.28;;
14776;SDS011;7480;43.124;25.686;2023-08-30T13:13:43;8.18;;;5.97;;
14776;SDS011;7480;43.124;25.686;2023-08-30T13:16:10;8.80;;;5.60;;
14776;SDS011;7480;43.124;25.686;2023-08-30T13:18:37;5.60;;;5.05;;
14776;SDS011;7480;43.124;25.686;2023-08-30T13:21:03;6.53;;;5.20;;
14776;SDS011;7480;43.124;25.686;2023-08-30T13:23:33;5.68;;;5.18;;
14776;SDS011;7480;43.124;25.686;2023-08-30T13:25:59;8.10;;;5.97;;
14776;SDS011;7480;43.124;25.686;2023-08-30T13:28:26;9.05;;;5.82;;
14776;SDS011;7480;43.124;25.686;2023-08-30T13:30:53;6.93;;;5.57;;
14776;SDS011;7480;43.124;25.686;2023-08-30T13:33:20;7.50;;;6.03;;
14776;SDS011;7480;43.124;25.686;2023-08-30T13:35:50;8.25;;;5.53;;
14776;SDS011;7480;43.124;25.686;2023-08-30T13:38:20;5.93;;;5.30;;
14776;SDS011;7480;43.124;25.686;2023-08-30T13:40:46;7.20;;;5.72;;
14776;SDS011;7480;43.124;25.686;2023-08-30T13:43:13;9.10;;;5.57;;
14776;SDS011;7480;43.124;25.686;2023-08-30T13:45:40;6.72;;;5.40;;
14776;SDS011;7480;43.124;25.686;2023-08-30T13:48:07;9.40;;;7.78;;
14776;SDS011;7480;43.124;25.686;2023-08-30T13:50:33;7.45;;;6.20;;
14776;SDS011;7480;43.124;25.686;2023-08-30T13:53:00;10.77;;;6.35;;
14776;SDS011;7480;43.124;25.686;2023-08-30T13:55:27;9.93;;;6.97;;
14776;SDS011;7480;43.124;25.686;2023-08-30T13:57:54;15.00;;;6.75;;
14776;SDS011;7480;43.124;25.686;2023-08-30T14:00:21;12.50;;;8.20;;
14776;SDS011;7480;43.124;25.686;2023-08-30T14:02:47;2.67;;;1.17;;
14776;SDS011;7480;43.124;25.686;2023-08-30T14:05:14;2.33;;;0.97;;
14776;SDS011;7480;43.124;25.686;2023-08-30T14:07:41;2.57;;;0.83;;
14776;SDS011;7480;43.124;25.686;2023-08-30T14:10:10;2.30;;;1.03;;
14776;SDS011;7480;43.124;25.686;2023-08-30T14:12:37;2.83;;;0.90;;
14776;SDS011;7480;43.124;25.686;2023-08-30T14:15:04;2.37;;;1.07;;
14776;SDS011;7480;43.124;25.686;2023-08-30T14:17:31;2.90;;;1.20;;
14776;SDS011;7480;43.124;25.686;2023-08-30T14:19:58;1.30;;;0.93;;
14776;SDS011;7480;43.124;25.686;2023-08-30T14:22:25;1.17;;;0.73;;
14776;SDS011;7480;43.124;25.686;2023-08-30T14:24:51;1.40;;;0.83;;
14776;SDS011;7480;43.124;25.686;2023-08-30T14:27:23;1.90;;;1.03;;
14776;SDS011;7480;43.124;25.686;2023-08-30T14:29:49;1.83;;;1.00;;
14776;SDS011;7480;43.124;25.686;2023-08-30T14:32:16;0.87;;;0.60;;
14776;SDS011;7480;43.124;25.686;2023-08-30T14:34:43;1.23;;;0.83;;
14776;SDS011;7480;43.124;25.686;2023-08-30T14:37:09;2.50;;;2.30;;
14776;SDS011;7480;43.124;25.686;2023-08-30T14:39:37;1.43;;;0.77;;
14776;SDS011;7480;43.124;25.686;2023-08-30T14:42:04;1.40;;;0.73;;
14776;SDS011;7480;43.124;25.686;2023-08-30T14:44:31;1.13;;;0.67;;
14776;SDS011;7480;43.124;25.686;2023-08-30T14:46:58;2.57;;;0.97;;
14776;SDS011;7480;43.124;25.686;2023-08-30T14:49:25;1.67;;;0.80;;
14776;SDS011;7480;43.124;25.686;2023-08-30T14:51:51;1.87;;;0.87;;
14776;SDS011;7480;43.124;25.686;2023-08-30T14:54:18;3.00;;;1.17;;
14776;SDS011;7480;43.124;25.686;2023-08-30T14:56:45;1.90;;;0.80;;
14776;SDS011;7480;43.124;25.686;2023-08-30T14:59:12;1.07;;;0.67;;